Terminal Aerodrome Forecast
Issued by NWS

Home | Current Version | Previous Version | Text Only | Print | Product List | Glossary On
Versions: 1 2 3 4 5 6 7 8 9 10 11 12 13 14 15 16
219
FTUS44 KCRP 181730
TAFLRD
TAF
KLRD 181730Z 1818/1918 32010KT P6SM OVC018
     FM182000 32008KT P6SM BKN045
     FM182300 33005KT P6SM VCSH OVC035
     FM190800 26005KT P6SM OVC035=

USA.gov is the U.S. government's official web portal to all federal, state and local government web resources and services.